createdAt,value
2023-05-01T00:02:13.024Z,9.48
2023-05-01T00:04:39.898Z,9.27
2023-05-01T00:07:07.324Z,9.21
2023-05-01T00:09:34.265Z,9.06
2023-05-01T00:12:03.225Z,9.18
2023-05-01T00:14:30.362Z,8.87
2023-05-01T00:16:57.291Z,8.86
2023-05-01T00:19:24.277Z,8.89
2023-05-01T00:21:53.138Z,8.80
2023-05-01T00:24:20.010Z,8.63
2023-05-01T00:26:46.891Z,8.52
2023-05-01T00:29:13.910Z,8.49
2023-05-01T00:31:42.711Z,8.52
2023-05-01T00:34:11.529Z,8.65
2023-05-01T00:36:38.599Z,8.66
2023-05-01T00:39:07.677Z,8.78
2023-05-01T00:41:37.250Z,8.73
2023-05-01T00:44:04.206Z,8.79
2023-05-01T00:46:31.951Z,8.81
2023-05-01T00:48:59.050Z,8.92
2023-05-01T00:51:27.477Z,8.81
2023-05-01T00:53:54.340Z,8.80
2023-05-01T00:56:21.564Z,8.71
2023-05-01T00:58:52.026Z,8.66
2023-05-01T01:01:21.044Z,8.59
2023-05-01T01:03:48.360Z,8.66
2023-05-01T01:06:24.254Z,8.61
2023-05-01T01:09:39.066Z,8.64
2023-05-01T01:12:39.741Z,8.78
2023-05-01T01:15:36.049Z,8.81
2023-05-01T01:18:04.404Z,8.90
2023-05-01T01:20:38.069Z,9.09
2023-05-01T01:23:04.929Z,9.08
2023-05-01T01:25:51.411Z,9.13
2023-05-01T01:28:18.710Z,9.19
2023-05-01T01:31:12.516Z,9.16
2023-05-01T01:34:01.743Z,9.19
2023-05-01T01:37:14.048Z,9.21
2023-05-01T01:39:46.685Z,9.11
2023-05-01T01:42:20.650Z,8.98
2023-05-01T01:44:56.342Z,8.98
2023-05-01T01:47:28.417Z,8.73
2023-05-01T01:49:56.668Z,8.67
2023-05-01T01:52:25.174Z,8.66
2023-05-01T01:54:56.024Z,8.55
2023-05-01T01:57:24.272Z,8.58
2023-05-01T01:59:51.727Z,8.55
2023-05-01T02:02:23.151Z,8.67
2023-05-01T02:04:51.881Z,8.85
2023-05-01T02:07:19.674Z,8.93
2023-05-01T02:09:48.275Z,8.88
2023-05-01T02:12:17.101Z,8.86
2023-05-01T02:14:45.075Z,8.85
2023-05-01T02:17:13.546Z,8.86
2023-05-01T02:19:40.699Z,8.85
2023-05-01T02:22:08.042Z,8.84
2023-05-01T02:24:36.057Z,8.90
2023-05-01T02:27:14.860Z,8.91
2023-05-01T02:29:41.728Z,9.06
2023-05-01T02:32:08.618Z,9.17
2023-05-01T02:34:35.926Z,9.25
2023-05-01T02:37:04.966Z,9.33
2023-05-01T02:39:32.091Z,9.39
2023-05-01T02:42:03.274Z,9.38
2023-05-01T02:44:33.673Z,9.39
2023-05-01T02:47:01.095Z,9.46
2023-05-01T02:49:28.277Z,9.37
2023-05-01T02:51:55.476Z,9.34
2023-05-01T02:54:22.621Z,9.53
2023-05-01T02:56:49.625Z,9.54
2023-05-01T02:59:16.528Z,9.67
2023-05-01T03:01:43.471Z,9.67
2023-05-01T03:04:10.313Z,9.72
2023-05-01T03:06:37.220Z,9.73
2023-05-01T03:09:04.112Z,9.76
2023-05-01T03:11:30.978Z,9.73
2023-05-01T03:13:57.768Z,9.73
2023-05-01T03:16:24.833Z,9.54
2023-05-01T03:18:51.770Z,9.56
2023-05-01T03:21:18.635Z,9.53
2023-05-01T03:23:45.568Z,9.45
2023-05-01T03:26:12.525Z,9.36
2023-05-01T03:28:39.440Z,9.26
2023-05-01T03:31:06.950Z,9.29
2023-05-01T03:33:34.175Z,9.21
2023-05-01T03:36:05.557Z,9.31
2023-05-01T03:38:33.767Z,9.52
2023-05-01T03:41:09.802Z,9.50
2023-05-01T03:43:55.215Z,9.55
2023-05-01T03:46:54.232Z,9.56
2023-05-01T03:49:25.318Z,9.44
2023-05-01T03:51:52.226Z,9.42
2023-05-01T03:54:19.055Z,9.29
2023-05-01T03:56:58.702Z,9.34
2023-05-01T03:59:25.886Z,9.59
2023-05-01T04:01:53.061Z,9.58
2023-05-01T04:04:21.105Z,9.54
2023-05-01T04:06:55.103Z,9.62
2023-05-01T04:09:22.317Z,9.53
2023-05-01T04:11:49.104Z,9.54
2023-05-01T04:14:16.626Z,9.57
2023-05-01T04:16:43.414Z,9.66
2023-05-01T04:19:10.501Z,9.89
2023-05-01T04:21:42.540Z,10.04
2023-05-01T04:24:09.369Z,9.99
2023-05-01T04:26:36.488Z,10.05
2023-05-01T04:29:03.409Z,10.11
2023-05-01T04:31:30.404Z,10.04
2023-05-01T04:33:58.684Z,10.14
2023-05-01T04:36:25.538Z,10.10
2023-05-01T04:38:52.902Z,10.01
2023-05-01T04:41:19.672Z,9.94
2023-05-01T04:43:47.801Z,9.96
2023-05-01T04:46:18.006Z,10.07
2023-05-01T04:48:44.860Z,10.06
2023-05-01T04:51:11.743Z,10.12
2023-05-01T04:53:39.427Z,10.12
2023-05-01T04:56:15.567Z,10.05
2023-05-01T04:58:42.687Z,9.94
2023-05-01T05:01:13.492Z,9.90
2023-05-01T05:03:40.760Z,9.89
2023-05-01T05:06:09.544Z,9.75
2023-05-01T05:08:36.406Z,9.88
2023-05-01T05:11:11.150Z,9.84
2023-05-01T05:14:16.667Z,10.06
2023-05-01T05:16:43.864Z,9.99
2023-05-01T05:19:10.714Z,10.01
2023-05-01T05:21:41.456Z,10.19
2023-05-01T05:24:08.633Z,10.22
2023-05-01T05:26:35.509Z,10.35
2023-05-01T05:29:03.934Z,10.33
2023-05-01T05:31:30.917Z,10.39
2023-05-01T05:33:58.830Z,10.45
2023-05-01T05:36:27.756Z,10.58
2023-05-01T05:38:55.038Z,10.62
2023-05-01T05:41:21.831Z,10.66
2023-05-01T05:43:51.734Z,10.72
2023-05-01T05:46:18.556Z,10.74
2023-05-01T05:48:46.495Z,10.68
2023-05-01T05:51:13.722Z,10.72
2023-05-01T05:53:40.578Z,10.82
2023-05-01T05:56:07.689Z,10.97
2023-05-01T05:58:34.663Z,10.92
2023-05-01T06:01:01.487Z,10.75
2023-05-01T06:03:28.651Z,10.86
2023-05-01T06:06:00.109Z,10.91
2023-05-01T06:08:27.532Z,10.87
2023-05-01T06:10:54.403Z,10.93
2023-05-01T06:13:21.692Z,10.89
2023-05-01T06:15:49.573Z,10.17
2023-05-01T06:18:16.735Z,9.72
2023-05-01T06:20:43.681Z,9.51
2023-05-01T06:23:10.901Z,9.26
2023-05-01T06:25:43.095Z,9.46
2023-05-01T06:28:10.033Z,9.28
2023-05-01T06:30:37.222Z,9.45
2023-05-01T06:33:04.487Z,9.28
2023-05-01T06:35:31.900Z,9.29
2023-05-01T06:37:58.795Z,9.36
2023-05-01T06:40:25.918Z,9.31
2023-05-01T06:42:52.829Z,9.28
2023-05-01T06:45:19.760Z,9.22
2023-05-01T06:47:46.738Z,9.16
2023-05-01T06:50:14.059Z,9.26
2023-05-01T06:52:41.755Z,9.39
2023-05-01T06:55:09.225Z,9.16
2023-05-01T06:57:36.286Z,9.24
2023-05-01T07:00:03.697Z,9.04
2023-05-01T07:02:30.592Z,8.96
2023-05-01T07:04:57.480Z,9.17
2023-05-01T07:07:24.411Z,9.13
2023-05-01T07:09:51.229Z,9.23
2023-05-01T07:12:18.160Z,9.12
2023-05-01T07:14:44.946Z,8.91
2023-05-01T07:17:11.781Z,9.19
2023-05-01T07:19:38.883Z,9.18
2023-05-01T07:22:05.693Z,9.18
2023-05-01T07:24:32.618Z,9.19
2023-05-01T07:27:00.136Z,9.20
2023-05-01T07:29:26.974Z,9.10
2023-05-01T07:31:53.863Z,9.26
2023-05-01T07:34:20.726Z,9.21
2023-05-01T07:36:47.541Z,9.49
2023-05-01T07:39:14.933Z,9.18
2023-05-01T07:41:41.840Z,9.15
2023-05-01T07:44:09.098Z,9.06
2023-05-01T07:46:37.060Z,8.94
2023-05-01T07:49:04.437Z,8.74
2023-05-01T07:51:32.097Z,8.75
2023-05-01T07:54:03.626Z,8.61
2023-05-01T07:56:31.470Z,8.54
2023-05-01T07:58:58.338Z,8.80
2023-05-01T08:01:25.622Z,8.53
2023-05-01T08:03:53.065Z,8.72
2023-05-01T08:06:20.132Z,8.75
2023-05-01T08:08:46.912Z,8.86
2023-05-01T08:11:14.012Z,8.65
2023-05-01T08:13:40.850Z,8.99
2023-05-01T08:26:38.610Z,9.01
2023-05-01T08:29:05.658Z,9.20
2023-05-01T08:31:32.679Z,9.47
2023-05-01T08:33:59.736Z,9.36
2023-05-01T08:36:39.883Z,9.04
2023-05-01T08:39:23.996Z,9.22
2023-05-01T08:42:34.235Z,9.45
2023-05-01T08:45:20.766Z,9.35
2023-05-01T08:47:57.571Z,9.29
2023-05-01T08:50:29.372Z,9.34
2023-05-01T08:53:00.622Z,9.66
2023-05-01T08:55:34.014Z,9.56
2023-05-01T08:58:01.966Z,9.62
2023-05-01T09:00:29.757Z,10.07
2023-05-01T09:03:01.940Z,9.50
2023-05-01T09:05:32.134Z,8.76
2023-05-01T09:07:59.354Z,8.99
2023-05-01T09:10:26.390Z,8.81
2023-05-01T09:12:59.658Z,8.91
2023-05-01T09:15:27.285Z,9.01
2023-05-01T09:17:55.090Z,9.27
2023-05-01T09:20:23.207Z,9.12
2023-05-01T09:22:50.828Z,8.65
2023-05-01T09:25:18.259Z,8.88
2023-05-01T09:27:45.989Z,9.09
2023-05-01T09:30:30.648Z,8.79
2023-05-01T09:33:14.726Z,8.72
2023-05-01T09:35:51.706Z,8.71
2023-05-01T09:38:23.805Z,8.70
2023-05-01T09:40:51.549Z,8.59
2023-05-01T09:43:26.795Z,8.58
2023-05-01T09:46:24.665Z,8.56
2023-05-01T09:49:01.244Z,8.82
2023-05-01T09:51:30.186Z,8.71
2023-05-01T09:54:02.583Z,9.07
2023-05-01T09:56:32.643Z,8.82
2023-05-01T09:59:20.356Z,8.70
2023-05-01T10:01:50.308Z,8.80
2023-05-01T10:04:17.606Z,9.05
2023-05-01T10:06:44.454Z,8.66
2023-05-01T10:09:17.575Z,8.82
2023-05-01T10:11:56.127Z,8.61
2023-05-01T10:14:28.330Z,8.70
2023-05-01T10:16:58.164Z,8.89
2023-05-01T10:19:25.285Z,9.10
2023-05-01T10:21:53.559Z,9.21
2023-05-01T10:24:20.688Z,9.25
2023-05-01T10:26:51.672Z,9.39
2023-05-01T10:29:19.011Z,9.21
2023-05-01T10:31:46.067Z,9.11
2023-05-01T10:34:16.895Z,9.45
2023-05-01T10:36:54.899Z,9.08
2023-05-01T10:39:35.193Z,9.05
2023-05-01T10:42:14.417Z,9.00
2023-05-01T10:44:42.965Z,9.32
2023-05-01T10:47:25.491Z,9.59
2023-05-01T10:50:08.893Z,9.76
2023-05-01T10:53:10.031Z,9.93
2023-05-01T10:55:38.296Z,9.84
2023-05-01T10:58:05.589Z,9.81
2023-05-01T11:00:34.312Z,10.08
2023-05-01T11:03:23.014Z,10.09
2023-05-01T11:06:05.002Z,9.88
2023-05-01T11:08:33.483Z,9.89
2023-05-01T11:11:22.885Z,9.67
2023-05-01T11:13:59.973Z,9.70
2023-05-01T11:16:46.351Z,9.55
2023-05-01T11:19:22.403Z,9.76
2023-05-01T11:21:50.575Z,9.89
2023-05-01T11:24:20.110Z,10.17
2023-05-01T11:26:47.575Z,10.07
2023-05-01T11:29:14.351Z,9.91
2023-05-01T11:31:41.750Z,9.28
2023-05-01T11:34:08.943Z,9.59
2023-05-01T11:36:52.452Z,9.67
2023-05-01T11:39:20.561Z,9.83
2023-05-01T11:41:48.013Z,9.37
2023-05-01T11:44:17.444Z,10.02
2023-05-01T11:46:44.624Z,10.44
2023-05-01T11:49:11.721Z,9.81
2023-05-01T11:51:38.651Z,9.85
2023-05-01T11:54:09.581Z,10.08
2023-05-01T11:56:37.884Z,10.06
2023-05-01T11:59:12.202Z,10.25
2023-05-01T12:01:46.368Z,10.28
2023-05-01T12:04:14.937Z,9.81
2023-05-01T12:06:45.101Z,9.46
2023-05-01T12:09:20.411Z,9.93
2023-05-01T12:11:52.975Z,9.01
2023-05-01T12:14:21.719Z,9.61
2023-05-01T12:16:49.438Z,8.99
2023-05-01T12:19:17.626Z,9.46
2023-05-01T12:21:44.505Z,9.07
2023-05-01T12:24:13.089Z,9.58
2023-05-01T12:26:40.767Z,9.56
2023-05-01T12:29:09.137Z,9.57
2023-05-01T12:31:36.835Z,9.87
2023-05-01T12:34:07.730Z,9.79
2023-05-01T12:36:36.356Z,9.78
2023-05-01T12:39:09.837Z,10.02
2023-05-01T12:41:39.705Z,9.88
2023-05-01T12:44:25.994Z,9.51
2023-05-01T12:47:06.834Z,9.45
2023-05-01T12:49:36.348Z,9.29
2023-05-01T12:52:08.013Z,9.83
2023-05-01T12:54:39.692Z,9.87
2023-05-01T12:57:11.793Z,10.43
2023-05-01T12:59:40.245Z,10.25
2023-05-01T13:02:08.880Z,10.36
2023-05-01T13:04:36.204Z,9.42
2023-05-01T13:07:16.574Z,9.47
2023-05-01T13:09:59.025Z,9.36
2023-05-01T13:12:27.729Z,9.01
2023-05-01T13:14:54.978Z,9.05
2023-05-01T13:17:32.292Z,9.82
2023-05-01T13:20:01.519Z,11.07
2023-05-01T13:22:39.058Z,11.40
2023-05-01T13:25:17.310Z,12.30
2023-05-01T13:27:53.783Z,11.46
2023-05-01T13:30:31.544Z,12.70
2023-05-01T13:32:58.518Z,11.71
2023-05-01T13:35:27.083Z,11.05
2023-05-01T13:37:54.344Z,10.54
2023-05-01T13:40:27.573Z,10.21
2023-05-01T13:42:54.470Z,10.48
2023-05-01T13:45:21.428Z,10.46
2023-05-01T13:47:49.938Z,11.40
2023-05-01T13:50:18.037Z,11.58
2023-05-01T13:52:45.457Z,11.45
2023-05-01T13:55:13.322Z,10.96
2023-05-01T13:57:41.606Z,9.95
2023-05-01T14:00:10.794Z,10.30
2023-05-01T14:02:46.218Z,10.12
2023-05-01T14:05:13.256Z,10.23
2023-05-01T14:07:59.050Z,10.61
2023-05-01T14:10:29.680Z,10.81
2023-05-01T14:12:58.754Z,11.45
2023-05-01T14:15:26.219Z,10.59
2023-05-01T14:17:53.301Z,10.70
2023-05-01T14:20:20.322Z,10.84
2023-05-01T14:22:48.398Z,10.33
2023-05-01T14:25:35.655Z,9.87
2023-05-01T14:28:05.938Z,10.21
2023-05-01T14:30:37.322Z,10.36
2023-05-01T14:33:06.298Z,10.06
2023-05-01T14:35:34.015Z,11.06
2023-05-01T14:38:11.302Z,11.33
2023-05-01T14:40:40.717Z,12.00
2023-05-01T14:43:08.322Z,12.32
2023-05-01T14:45:36.769Z,12.34
2023-05-01T14:48:04.299Z,12.00
2023-05-01T14:50:31.500Z,11.22
2023-05-01T14:53:01.441Z,11.41
2023-05-01T14:55:30.884Z,12.92
2023-05-01T14:57:58.137Z,13.58
2023-05-01T15:00:25.442Z,13.33
2023-05-01T15:02:52.569Z,12.71
2023-05-01T15:05:19.607Z,12.63
2023-05-01T15:07:47.077Z,11.63
2023-05-01T15:10:15.459Z,11.47
2023-05-01T15:12:42.244Z,10.77
2023-05-01T15:15:09.657Z,11.59
2023-05-01T15:17:36.789Z,11.13
2023-05-01T15:20:03.987Z,10.98
2023-05-01T15:22:31.504Z,11.35
2023-05-01T15:24:58.625Z,11.52
2023-05-01T15:27:25.758Z,11.34
2023-05-01T15:29:52.593Z,11.93
2023-05-01T15:32:19.386Z,11.20
2023-05-01T15:34:46.345Z,11.07
2023-05-01T15:37:13.207Z,9.79
2023-05-01T15:39:40.493Z,10.67
2023-05-01T15:42:07.394Z,10.33
2023-05-01T15:44:34.687Z,10.42
2023-05-01T15:47:02.193Z,12.62
2023-05-01T15:49:29.097Z,13.75
2023-05-01T15:51:56.501Z,13.47
2023-05-01T15:54:24.733Z,13.84
2023-05-01T15:56:51.834Z,12.61
2023-05-01T15:59:18.756Z,11.47
2023-05-01T16:01:45.771Z,11.94
2023-05-01T16:04:12.894Z,11.03
2023-05-01T16:06:40.921Z,10.69
2023-05-01T16:09:08.005Z,10.92
2023-05-01T16:11:35.727Z,11.31
2023-05-01T16:14:02.949Z,12.07
2023-05-01T16:16:30.044Z,11.52
2023-05-01T16:18:58.895Z,11.76
2023-05-01T16:21:26.872Z,10.85
2023-05-01T16:23:57.450Z,10.60
2023-05-01T16:26:28.187Z,10.56
2023-05-01T16:29:02.073Z,10.43
2023-05-01T16:31:38.904Z,10.59
2023-05-01T16:34:11.348Z,11.85
2023-05-01T16:36:42.559Z,11.49
2023-05-01T16:39:21.122Z,11.03
2023-05-01T16:41:53.365Z,11.37
2023-05-01T16:44:21.833Z,11.47
2023-05-01T16:46:58.874Z,13.36
2023-05-01T16:49:27.662Z,12.83
2023-05-01T16:51:58.855Z,11.57
2023-05-01T16:54:32.077Z,11.52
2023-05-01T16:56:59.477Z,11.24
2023-05-01T16:59:28.143Z,10.77
2023-05-01T17:01:55.453Z,10.37
2023-05-01T17:04:22.683Z,10.14
2023-05-01T17:06:49.787Z,9.18
2023-05-01T17:09:16.910Z,9.58
2023-05-01T17:11:56.859Z,9.37
2023-05-01T17:14:24.013Z,9.58
2023-05-01T17:16:51.683Z,9.91
2023-05-01T17:19:19.201Z,9.16
2023-05-01T17:21:46.130Z,9.68
2023-05-01T17:24:14.148Z,9.47
2023-05-01T17:26:41.214Z,8.97
2023-05-01T17:29:10.004Z,8.62
2023-05-01T17:31:36.973Z,9.38
2023-05-01T17:34:03.948Z,8.29
2023-05-01T17:36:30.725Z,9.07
2023-05-01T17:38:57.841Z,8.89
2023-05-01T17:41:24.888Z,8.83
2023-05-01T17:43:51.878Z,9.00
2023-05-01T17:46:20.370Z,8.25
2023-05-01T17:48:48.652Z,7.90
2023-05-01T17:51:15.516Z,8.27
2023-05-01T17:53:42.386Z,7.95
2023-05-01T17:56:09.521Z,8.13
2023-05-01T17:58:36.586Z,8.34
2023-05-01T18:01:06.965Z,8.64
2023-05-01T18:03:34.054Z,8.00
2023-05-01T18:06:02.512Z,8.38
2023-05-01T18:08:29.547Z,7.61
2023-05-01T18:10:56.544Z,7.48
2023-05-01T18:13:28.601Z,7.22
2023-05-01T18:15:56.429Z,7.27
2023-05-01T18:18:23.518Z,7.28
2023-05-01T18:20:50.414Z,8.06
2023-05-01T18:23:19.967Z,7.48
2023-05-01T18:25:46.853Z,7.16
2023-05-01T18:28:16.599Z,7.72
2023-05-01T18:30:43.827Z,7.80
2023-05-01T18:33:11.658Z,7.77
2023-05-01T18:35:39.973Z,8.03
2023-05-01T18:38:06.843Z,7.77
2023-05-01T18:40:33.621Z,7.08
2023-05-01T18:43:00.427Z,7.35
2023-05-01T18:45:27.885Z,7.54
2023-05-01T18:47:54.782Z,7.60
2023-05-01T18:50:22.032Z,7.53
2023-05-01T18:52:49.354Z,7.70
2023-05-01T18:55:18.156Z,7.49
2023-05-01T18:57:46.695Z,7.60
2023-05-01T19:00:15.148Z,7.51
2023-05-01T19:02:42.114Z,7.14
2023-05-01T19:05:09.573Z,7.26
2023-05-01T19:07:36.641Z,7.18
2023-05-01T19:10:03.883Z,7.18
2023-05-01T19:12:30.911Z,7.29
2023-05-01T19:14:57.716Z,7.32
2023-05-01T19:17:24.592Z,6.71
2023-05-01T19:19:51.523Z,6.50
2023-05-01T19:22:18.466Z,6.53
2023-05-01T19:24:45.361Z,6.67
2023-05-01T19:27:12.335Z,6.64
2023-05-01T19:29:39.822Z,7.24
2023-05-01T19:32:07.334Z,6.83
2023-05-01T19:34:34.375Z,6.48
2023-05-01T19:37:02.159Z,6.99
2023-05-01T19:39:29.620Z,7.02
2023-05-01T19:41:56.415Z,6.78
2023-05-01T19:44:23.337Z,7.26
2023-05-01T19:46:50.101Z,6.67
2023-05-01T19:49:17.054Z,6.49
2023-05-01T19:51:45.340Z,6.54
2023-05-01T19:54:12.438Z,6.72
2023-05-01T19:56:39.468Z,6.80
2023-05-01T19:59:06.528Z,6.46
2023-05-01T20:01:33.639Z,6.29
2023-05-01T20:04:00.880Z,6.51
2023-05-01T20:06:27.892Z,6.68
2023-05-01T20:08:55.100Z,6.25
2023-05-01T20:11:21.902Z,6.16
2023-05-01T20:13:48.709Z,6.44
2023-05-01T20:16:15.514Z,6.24
2023-05-01T20:18:42.565Z,6.01
2023-05-01T20:21:09.419Z,6.15
2023-05-01T20:23:36.256Z,6.21
2023-05-01T20:26:03.971Z,5.93
2023-05-01T20:28:30.728Z,6.19
2023-05-01T20:30:57.645Z,6.53
2023-05-01T20:33:24.820Z,6.16
2023-05-01T20:35:51.926Z,6.45
2023-05-01T20:38:18.859Z,5.96
2023-05-01T20:40:45.654Z,6.04
2023-05-01T20:43:13.056Z,6.26
2023-05-01T20:45:39.966Z,5.87
2023-05-01T20:48:07.481Z,5.59
2023-05-01T20:50:35.540Z,5.92
2023-05-01T20:53:02.352Z,5.82
2023-05-01T20:55:30.011Z,5.99
2023-05-01T20:57:56.826Z,5.80
2023-05-01T21:00:23.698Z,5.84
2023-05-01T21:02:51.996Z,5.67
2023-05-01T21:05:18.976Z,5.22
2023-05-01T21:07:45.829Z,5.54
2023-05-01T21:10:14.543Z,5.53
2023-05-01T21:12:41.689Z,5.30
2023-05-01T21:15:09.297Z,5.51
2023-05-01T21:17:37.109Z,5.72
2023-05-01T21:20:05.967Z,5.61
2023-05-01T21:22:33.124Z,5.64
2023-05-01T21:25:00.593Z,5.36
2023-05-01T21:27:28.094Z,5.37
2023-05-01T21:29:57.221Z,5.45
2023-05-01T21:32:32.958Z,5.42
2023-05-01T21:35:00.840Z,5.23
2023-05-01T21:37:27.955Z,5.24
2023-05-01T21:39:57.187Z,5.36
2023-05-01T21:42:29.907Z,5.18
2023-05-01T21:45:00.568Z,5.28
2023-05-01T21:47:28.063Z,5.10
2023-05-01T21:49:58.631Z,5.07
2023-05-01T21:52:25.796Z,5.20
2023-05-01T21:54:52.709Z,5.30
2023-05-01T21:57:20.007Z,5.38
2023-05-01T21:59:48.390Z,5.25
2023-05-01T22:02:15.431Z,5.36
2023-05-01T22:04:42.388Z,5.31
2023-05-01T22:07:10.553Z,5.38
2023-05-01T22:09:38.145Z,5.49
2023-05-01T22:12:05.441Z,5.42
2023-05-01T22:14:46.201Z,5.53
2023-05-01T22:17:14.330Z,5.47
2023-05-01T22:19:41.160Z,5.47
2023-05-01T22:22:08.079Z,4.87
2023-05-01T22:24:36.254Z,4.82
2023-05-01T22:27:03.159Z,4.55
2023-05-01T22:29:29.956Z,4.48
2023-05-01T22:31:56.949Z,4.36
2023-05-01T22:34:23.883Z,4.24
2023-05-01T22:36:50.758Z,4.12
2023-05-01T22:39:17.608Z,4.26
2023-05-01T22:41:44.555Z,4.37
2023-05-01T22:44:11.408Z,4.24
2023-05-01T22:46:38.295Z,4.07
2023-05-01T22:49:05.050Z,4.28
2023-05-01T22:51:31.915Z,4.31
2023-05-01T22:53:58.776Z,4.41
2023-05-01T22:56:26.388Z,4.32
2023-05-01T22:58:53.250Z,4.37
2023-05-01T23:01:20.165Z,4.49
2023-05-01T23:03:48.496Z,4.17
2023-05-01T23:06:16.005Z,4.30
2023-05-01T23:08:42.829Z,4.21
2023-05-01T23:11:16.635Z,4.30
2023-05-01T23:13:47.319Z,4.14
2023-05-01T23:16:17.267Z,3.95
2023-05-01T23:18:45.713Z,4.11
2023-05-01T23:21:17.898Z,4.02
2023-05-01T23:23:45.662Z,3.99
2023-05-01T23:26:26.649Z,3.97
2023-05-01T23:28:53.509Z,3.98
2023-05-01T23:31:27.788Z,3.80
2023-05-01T23:33:55.466Z,3.80
2023-05-01T23:36:22.560Z,3.80
2023-05-01T23:38:49.829Z,3.97
2023-05-01T23:41:16.743Z,4.10
2023-05-01T23:43:46.657Z,4.23
2023-05-01T23:46:14.265Z,4.25
2023-05-01T23:48:41.300Z,4.16
2023-05-01T23:51:08.257Z,4.08
2023-05-01T23:53:35.180Z,4.13
2023-05-01T23:56:02.309Z,4.07
2023-05-01T23:58:29.202Z,4.27
